createdAt,value
2023-04-26T00:00:32.616Z,0.00
2023-04-26T00:01:32.622Z,0.00
2023-04-26T00:02:32.796Z,0.00
2023-04-26T00:03:32.948Z,0.00
2023-04-26T00:04:32.748Z,0.00
2023-04-26T00:05:32.621Z,0.00
2023-04-26T00:06:32.552Z,0.00
2023-04-26T00:07:32.576Z,0.00
2023-04-26T00:08:32.534Z,0.00
2023-04-26T00:09:32.553Z,0.00
2023-04-26T00:10:32.528Z,0.00
2023-04-26T00:11:32.527Z,0.00
2023-04-26T00:12:32.489Z,0.00
2023-04-26T00:13:32.481Z,0.00
2023-04-26T00:14:32.490Z,0.00
2023-04-26T00:15:32.472Z,0.00
2023-04-26T00:16:32.496Z,0.00
2023-04-26T00:17:32.463Z,0.00
2023-04-26T00:18:32.455Z,0.00
2023-04-26T00:19:32.438Z,0.00
2023-04-26T00:20:32.399Z,0.00
2023-04-26T00:21:32.394Z,0.00
2023-04-26T00:22:32.378Z,0.00
2023-04-26T00:23:32.380Z,0.00
2023-04-26T00:24:32.368Z,0.00
2023-04-26T00:25:32.359Z,0.00
2023-04-26T00:26:32.347Z,0.00
2023-04-26T00:27:32.358Z,0.00
2023-04-26T00:28:32.323Z,0.00
2023-04-26T00:29:32.316Z,0.00
2023-04-26T00:30:32.306Z,0.00
2023-04-26T00:31:32.323Z,0.00
2023-04-26T00:32:32.294Z,0.00
2023-04-26T00:33:32.273Z,0.00
2023-04-26T00:34:32.272Z,0.00
2023-04-26T00:35:32.243Z,0.00
2023-04-26T00:36:32.227Z,0.00
2023-04-26T00:37:32.220Z,0.00
2023-04-26T00:38:32.223Z,0.00
2023-04-26T00:39:32.213Z,0.00
2023-04-26T00:40:32.201Z,0.00
2023-04-26T00:41:32.181Z,0.00
2023-04-26T00:42:39.689Z,0.00
2023-04-26T00:43:32.953Z,0.00
2023-04-26T00:44:32.152Z,0.00
2023-04-26T00:45:32.172Z,0.00
2023-04-26T00:46:32.123Z,0.00
2023-04-26T00:47:32.124Z,0.00
2023-04-26T00:48:32.100Z,0.00
2023-04-26T00:49:32.102Z,0.00
2023-04-26T00:50:32.102Z,0.00
2023-04-26T00:51:32.069Z,0.00
2023-04-26T00:52:32.108Z,0.00
2023-04-26T00:53:32.050Z,0.00
2023-04-26T00:54:32.041Z,0.00
2023-04-26T00:55:32.076Z,0.00
2023-04-26T00:56:32.016Z,0.00
2023-04-26T00:57:32.017Z,0.00
2023-04-26T00:58:31.981Z,0.00
2023-04-26T00:59:32.005Z,0.00
2023-04-26T01:00:32.001Z,0.00
2023-04-26T01:01:32.040Z,0.00
2023-04-26T01:02:32.121Z,0.00
2023-04-26T01:03:32.028Z,0.00
2023-04-26T01:04:31.997Z,0.00
2023-04-26T01:05:31.905Z,0.00
2023-04-26T01:06:32.083Z,0.00
2023-04-26T01:07:31.884Z,0.00
2023-04-26T01:08:31.888Z,0.00
2023-04-26T01:09:31.888Z,0.00
2023-04-26T01:10:31.850Z,0.00
2023-04-26T01:11:31.848Z,0.00
2023-04-26T01:12:31.819Z,0.00
2023-04-26T01:13:31.812Z,0.00
2023-04-26T01:14:31.801Z,0.00
2023-04-26T01:15:31.802Z,0.00
2023-04-26T01:16:31.801Z,0.00
2023-04-26T01:17:31.805Z,0.00
2023-04-26T01:18:31.761Z,0.00
2023-04-26T01:19:31.756Z,0.00
2023-04-26T01:20:31.746Z,0.00
2023-04-26T01:21:31.733Z,0.00
2023-04-26T01:22:31.727Z,0.00
2023-04-26T01:23:31.713Z,0.00
2023-04-26T01:24:31.689Z,0.00
2023-04-26T01:25:31.699Z,0.00
2023-04-26T01:26:31.673Z,0.00
2023-04-26T01:27:31.659Z,0.00
2023-04-26T01:28:31.636Z,0.00
2023-04-26T01:29:31.650Z,0.00
2023-04-26T01:30:31.631Z,0.00
2023-04-26T01:31:31.741Z,0.00
2023-04-26T01:32:31.655Z,0.00
2023-04-26T01:33:31.590Z,0.00
2023-04-26T01:34:31.574Z,0.00
2023-04-26T01:35:31.562Z,0.00
2023-04-26T01:36:31.549Z,0.00
2023-04-26T01:37:31.550Z,0.00
2023-04-26T01:38:31.566Z,0.00
2023-04-26T01:39:31.534Z,0.00
2023-04-26T01:40:31.499Z,0.00
2023-04-26T01:41:31.494Z,0.00
2023-04-26T01:42:31.507Z,0.00
2023-04-26T01:43:31.480Z,0.00
2023-04-26T01:44:31.468Z,0.00
2023-04-26T01:45:31.483Z,0.00
2023-04-26T01:46:31.488Z,0.00
2023-04-26T01:47:31.487Z,0.00
2023-04-26T01:48:31.417Z,0.00
2023-04-26T01:49:31.416Z,0.00
2023-04-26T01:50:31.390Z,0.00
2023-04-26T01:51:31.413Z,0.00
2023-04-26T01:52:31.417Z,0.00
2023-04-26T01:53:31.360Z,0.00
2023-04-26T01:54:31.392Z,0.00
2023-04-26T01:55:31.353Z,0.00
2023-04-26T01:56:31.336Z,0.00
2023-04-26T01:57:31.326Z,0.00
2023-04-26T01:58:31.300Z,0.00
2023-04-26T01:59:31.294Z,0.00
2023-04-26T02:00:31.286Z,0.00
2023-04-26T02:01:31.303Z,0.00
2023-04-26T02:02:31.299Z,0.00
2023-04-26T02:03:31.337Z,0.00
2023-04-26T02:04:31.271Z,0.00
2023-04-26T02:05:31.238Z,0.00
2023-04-26T02:06:31.249Z,0.00
2023-04-26T02:07:31.217Z,0.00
2023-04-26T02:08:31.201Z,0.00
2023-04-26T02:09:31.197Z,0.00
2023-04-26T02:10:31.188Z,0.00
2023-04-26T02:11:31.175Z,0.00
2023-04-26T02:12:31.952Z,0.00
2023-04-26T02:13:31.153Z,0.00
2023-04-26T02:14:31.148Z,0.00
2023-04-26T02:15:31.133Z,0.00
2023-04-26T02:16:31.214Z,0.00
2023-04-26T02:17:31.132Z,0.00
2023-04-26T02:18:31.108Z,0.00
2023-04-26T02:19:31.086Z,0.00
2023-04-26T02:20:31.065Z,0.00
2023-04-26T02:21:31.058Z,0.00
2023-04-26T02:22:31.068Z,0.00
2023-04-26T02:23:31.034Z,0.00
2023-04-26T02:24:33.430Z,0.00
2023-04-26T02:25:31.019Z,0.00
2023-04-26T02:26:31.020Z,0.00
2023-04-26T02:27:30.993Z,0.00
2023-04-26T02:28:30.993Z,0.00
2023-04-26T02:29:43.687Z,0.00
2023-04-26T02:30:30.953Z,0.00
2023-04-26T02:31:30.951Z,0.00
2023-04-26T02:32:30.965Z,0.00
2023-04-26T02:33:30.953Z,0.00
2023-04-26T02:34:30.916Z,0.00
2023-04-26T02:35:30.908Z,0.00
2023-04-26T02:36:30.885Z,0.00
2023-04-26T02:37:30.886Z,0.00
2023-04-26T02:38:30.877Z,0.00
2023-04-26T02:39:30.856Z,0.00
2023-04-26T02:40:30.862Z,0.00
2023-04-26T02:41:30.844Z,0.00
2023-04-26T02:42:30.976Z,0.00
2023-04-26T02:43:38.359Z,0.00
2023-04-26T02:44:30.794Z,0.00
2023-04-26T02:45:30.782Z,0.00
2023-04-26T02:46:30.828Z,0.00
2023-04-26T02:47:30.814Z,0.00
2023-04-26T02:48:30.755Z,0.00
2023-04-26T02:49:30.737Z,0.00
2023-04-26T02:50:30.732Z,0.00
2023-04-26T02:51:30.739Z,0.00
2023-04-26T02:52:30.711Z,0.00
2023-04-26T02:53:30.705Z,0.00
2023-04-26T02:54:30.678Z,0.00
2023-04-26T02:55:30.668Z,0.00
2023-04-26T02:56:30.664Z,0.00
2023-04-26T02:57:30.646Z,0.00
2023-04-26T02:58:30.683Z,0.00
2023-04-26T02:59:30.640Z,0.00
2023-04-26T03:00:30.627Z,0.00
2023-04-26T03:01:30.649Z,0.00
2023-04-26T03:02:30.723Z,0.00
2023-04-26T03:03:30.672Z,0.00
2023-04-26T03:04:30.581Z,0.00
2023-04-26T03:05:30.577Z,0.00
2023-04-26T03:06:30.627Z,0.00
2023-04-26T03:07:30.534Z,0.00
2023-04-26T03:08:30.518Z,0.00
2023-04-26T03:09:30.526Z,0.00
2023-04-26T03:10:30.498Z,0.00
2023-04-26T03:11:30.503Z,0.00
2023-04-26T03:12:30.482Z,0.00
2023-04-26T03:13:30.462Z,0.00
2023-04-26T03:14:30.492Z,0.00
2023-04-26T03:15:30.450Z,0.00
2023-04-26T03:16:30.471Z,0.00
2023-04-26T03:17:30.479Z,0.00
2023-04-26T03:18:30.425Z,0.00
2023-04-26T03:19:30.401Z,0.00
2023-04-26T03:20:30.412Z,0.00
2023-04-26T03:21:30.384Z,0.00
2023-04-26T03:22:30.372Z,0.00
2023-04-26T03:23:30.364Z,0.00
2023-04-26T03:24:30.362Z,0.00
2023-04-26T03:25:30.333Z,0.00
2023-04-26T03:26:30.319Z,0.00
2023-04-26T03:27:30.305Z,0.00
2023-04-26T03:28:30.308Z,0.00
2023-04-26T03:29:30.286Z,0.00
2023-04-26T03:30:30.312Z,0.00
2023-04-26T03:31:30.304Z,0.00
2023-04-26T03:32:30.269Z,0.00
2023-04-26T03:33:30.240Z,0.00
2023-04-26T03:34:30.242Z,0.00
2023-04-26T03:35:30.231Z,0.00
2023-04-26T03:36:30.206Z,0.00
2023-04-26T03:37:30.205Z,0.00
2023-04-26T03:38:30.192Z,0.00
2023-04-26T03:39:30.232Z,0.00
2023-04-26T03:40:30.177Z,0.00
2023-04-26T03:41:30.975Z,0.00
2023-04-26T03:42:30.169Z,0.00
2023-04-26T03:43:30.137Z,0.00
2023-04-26T03:44:31.233Z,0.00
2023-04-26T03:45:30.125Z,0.00
2023-04-26T03:46:30.178Z,0.00
2023-04-26T03:47:30.112Z,0.00
2023-04-26T03:48:30.076Z,0.00
2023-04-26T03:49:30.060Z,0.00
2023-04-26T03:50:30.079Z,0.00
2023-04-26T03:51:30.036Z,0.00
2023-04-26T03:52:30.043Z,0.00
2023-04-26T03:53:30.034Z,0.00
2023-04-26T03:54:30.002Z,0.00
2023-04-26T03:55:30.033Z,0.00
2023-04-26T03:56:30.016Z,0.00
2023-04-26T03:57:29.985Z,0.00
2023-04-26T03:58:29.963Z,0.00
2023-04-26T03:59:29.960Z,0.00
2023-04-26T04:00:29.949Z,0.00
2023-04-26T04:01:29.942Z,5.62
2023-04-26T04:02:30.141Z,5.62
2023-04-26T04:03:30.092Z,5.62
2023-04-26T04:04:29.972Z,5.62
2023-04-26T04:05:30.025Z,5.62
2023-04-26T04:06:29.877Z,5.62
2023-04-26T04:07:29.849Z,5.62
2023-04-26T04:08:29.841Z,11.25
2023-04-26T04:09:29.834Z,11.25
2023-04-26T04:10:29.826Z,11.25
2023-04-26T04:11:29.833Z,11.25
2023-04-26T04:12:29.809Z,11.25
2023-04-26T04:13:29.827Z,16.88
2023-04-26T04:14:29.771Z,16.88
2023-04-26T04:15:29.800Z,16.88
2023-04-26T04:16:29.873Z,16.88
2023-04-26T04:17:29.749Z,22.50
2023-04-26T04:18:29.760Z,22.50
2023-04-26T04:19:29.717Z,22.50
2023-04-26T04:20:29.706Z,22.50
2023-04-26T04:21:29.703Z,28.12
2023-04-26T04:22:29.707Z,28.12
2023-04-26T04:23:29.688Z,28.12
2023-04-26T04:24:29.662Z,33.75
2023-04-26T04:25:29.648Z,33.75
2023-04-26T04:26:29.642Z,33.75
2023-04-26T04:27:29.638Z,39.38
2023-04-26T04:28:29.617Z,39.38
2023-04-26T04:29:29.600Z,39.38
2023-04-26T04:30:29.617Z,45.00
2023-04-26T04:31:29.613Z,45.00
2023-04-26T04:32:29.611Z,50.62
2023-04-26T04:33:29.562Z,50.62
2023-04-26T04:34:29.571Z,50.62
2023-04-26T04:35:29.536Z,56.25
2023-04-26T04:36:29.536Z,56.25
2023-04-26T04:37:29.527Z,56.25
2023-04-26T04:38:29.528Z,61.88
2023-04-26T04:39:29.488Z,61.88
2023-04-26T04:40:29.493Z,67.50
2023-04-26T04:41:29.465Z,67.50
2023-04-26T04:42:29.470Z,67.50
2023-04-26T04:43:29.454Z,73.12
2023-04-26T04:44:36.951Z,73.12
2023-04-26T04:45:29.418Z,73.12
2023-04-26T04:46:29.461Z,78.75
2023-04-26T04:47:29.406Z,78.75
2023-04-26T04:48:29.398Z,84.38
2023-04-26T04:49:29.369Z,84.38
2023-04-26T04:50:29.380Z,84.38
2023-04-26T04:51:29.358Z,84.38
2023-04-26T04:52:29.345Z,84.38
2023-04-26T04:53:29.357Z,90.00
2023-04-26T04:54:29.324Z,90.00
2023-04-26T04:55:29.313Z,90.00
2023-04-26T04:56:29.322Z,95.62
2023-04-26T04:57:29.301Z,95.62
2023-04-26T04:58:29.274Z,101.25
2023-04-26T04:59:29.276Z,101.25
2023-04-26T05:00:29.284Z,106.88
2023-04-26T05:01:29.295Z,106.88
2023-04-26T05:02:29.338Z,106.88
2023-04-26T05:03:29.343Z,112.50
2023-04-26T05:04:29.418Z,112.50
2023-04-26T05:05:29.213Z,118.12
2023-04-26T05:06:29.205Z,118.12
2023-04-26T05:07:29.284Z,123.75
2023-04-26T05:08:29.163Z,123.75
2023-04-26T05:09:29.165Z,123.75
2023-04-26T05:10:29.283Z,129.38
2023-04-26T05:11:29.128Z,129.38
2023-04-26T05:12:29.115Z,135.00
2023-04-26T05:13:29.110Z,135.00
2023-04-26T05:14:29.118Z,135.00
2023-04-26T05:15:29.100Z,146.25
2023-04-26T05:16:29.150Z,191.25
2023-04-26T05:17:29.143Z,247.50
2023-04-26T05:18:29.065Z,286.88
2023-04-26T05:19:29.088Z,298.12
2023-04-26T05:20:29.031Z,303.75
2023-04-26T05:21:29.013Z,315.00
2023-04-26T05:22:29.048Z,320.62
2023-04-26T05:23:29.000Z,326.25
2023-04-26T05:24:28.987Z,337.50
2023-04-26T05:25:28.977Z,343.12
2023-04-26T05:26:28.986Z,343.12
2023-04-26T05:27:28.953Z,348.75
2023-04-26T05:28:28.963Z,348.75
2023-04-26T05:29:28.934Z,354.38
2023-04-26T05:30:28.935Z,360.00
2023-04-26T05:31:28.994Z,376.88
2023-04-26T05:32:28.924Z,382.50
2023-04-26T05:33:28.894Z,382.50
2023-04-26T05:34:28.889Z,393.75
2023-04-26T05:35:28.868Z,399.38
2023-04-26T05:36:30.061Z,405.00
2023-04-26T05:37:28.844Z,405.00
2023-04-26T05:38:28.991Z,410.62
2023-04-26T05:39:28.857Z,416.25
2023-04-26T05:40:28.839Z,427.50
2023-04-26T05:41:28.810Z,427.50
2023-04-26T05:42:28.814Z,433.12
2023-04-26T05:43:28.799Z,433.12
2023-04-26T05:44:28.770Z,433.12
2023-04-26T05:45:28.817Z,438.75
2023-04-26T05:46:28.896Z,444.38
2023-04-26T05:47:28.755Z,444.38
2023-04-26T05:48:28.760Z,450.00
2023-04-26T05:49:28.909Z,450.00
2023-04-26T05:50:28.728Z,455.62
2023-04-26T05:51:28.810Z,461.25
2023-04-26T05:52:28.694Z,466.88
2023-04-26T05:53:28.702Z,466.88
2023-04-26T05:54:28.730Z,478.12
2023-04-26T05:55:29.475Z,489.38
2023-04-26T05:56:28.665Z,523.12
2023-04-26T05:57:28.652Z,590.62
2023-04-26T05:58:28.623Z,641.25
2023-04-26T05:59:28.624Z,691.88
2023-04-26T06:00:28.716Z,753.75
2023-04-26T06:01:29.172Z,731.25
2023-04-26T06:02:28.922Z,691.88
2023-04-26T06:03:28.941Z,675.00
2023-04-26T06:04:28.698Z,680.62
2023-04-26T06:05:28.617Z,708.75
2023-04-26T06:06:28.639Z,748.12
2023-04-26T06:07:28.514Z,770.62
2023-04-26T06:08:28.523Z,770.62
2023-04-26T06:09:28.509Z,832.50
2023-04-26T06:10:28.603Z,961.88
2023-04-26T06:11:28.519Z,956.25
2023-04-26T06:12:28.470Z,855.00
2023-04-26T06:13:28.484Z,838.12
2023-04-26T06:14:30.691Z,883.12
2023-04-26T06:15:28.440Z,883.12
2023-04-26T06:16:28.493Z,888.75
2023-04-26T06:17:28.437Z,945.00
2023-04-26T06:18:28.419Z,945.00
2023-04-26T06:19:28.413Z,945.00
2023-04-26T06:20:28.477Z,973.12
2023-04-26T06:21:28.375Z,1018.12
2023-04-26T06:22:28.392Z,1102.50
2023-04-26T06:23:28.343Z,1130.62
2023-04-26T06:24:28.353Z,1080.00
2023-04-26T06:25:28.332Z,1035.00
2023-04-26T06:26:28.361Z,1035.00
2023-04-26T06:27:28.324Z,1198.12
2023-04-26T06:28:28.295Z,1321.88
2023-04-26T06:29:28.313Z,900.00
2023-04-26T06:30:28.405Z,534.38
2023-04-26T06:31:28.340Z,528.75
2023-04-26T06:32:28.284Z,478.12
2023-04-26T06:33:28.291Z,450.00
2023-04-26T06:34:28.244Z,478.12
2023-04-26T06:35:28.212Z,438.75
2023-04-26T06:36:28.228Z,421.88
2023-04-26T06:37:28.224Z,410.62
2023-04-26T06:38:28.188Z,405.00
2023-04-26T06:39:29.059Z,416.25
2023-04-26T06:40:28.178Z,472.50
2023-04-26T06:41:28.175Z,421.88
2023-04-26T06:42:28.245Z,438.75
2023-04-26T06:43:28.132Z,534.38
2023-04-26T06:44:28.139Z,523.12
2023-04-26T06:47:06.604Z,680.62
2023-04-26T06:48:06.672Z,652.50
2023-04-26T06:49:06.580Z,770.62
2023-04-26T06:50:06.570Z,911.25
2023-04-26T06:51:06.597Z,781.88
2023-04-26T06:52:07.031Z,686.25
2023-04-26T06:53:06.543Z,731.25
2023-04-26T06:54:06.523Z,793.12
2023-04-26T06:55:06.508Z,714.38
2023-04-26T06:56:06.533Z,618.75
2023-04-26T06:57:06.499Z,663.75
2023-04-26T06:58:06.565Z,849.38
2023-04-26T06:59:06.507Z,984.38
2023-04-26T07:00:06.466Z,1687.50
2023-04-26T07:01:06.441Z,1248.75
2023-04-26T07:02:06.625Z,1372.50
2023-04-26T07:03:06.540Z,1051.88
2023-04-26T07:04:06.589Z,1158.75
2023-04-26T07:05:06.498Z,1327.50
2023-04-26T07:06:06.400Z,950.62
2023-04-26T07:07:06.418Z,871.88
2023-04-26T07:08:06.393Z,1254.38
2023-04-26T07:09:06.426Z,894.38
2023-04-26T07:10:06.354Z,990.00
2023-04-26T07:11:06.374Z,826.88
2023-04-26T07:12:06.794Z,753.75
2023-04-26T07:13:08.226Z,1057.50
2023-04-26T07:14:06.504Z,1591.88
2023-04-26T07:15:06.359Z,720.00
2023-04-26T07:16:06.327Z,1558.12
2023-04-26T07:17:06.315Z,1563.75
2023-04-26T07:18:06.334Z,1665.00
2023-04-26T07:19:06.284Z,1670.62
2023-04-26T07:20:06.241Z,1620.00
2023-04-26T07:21:06.233Z,1653.75
2023-04-26T07:22:06.259Z,1693.12
2023-04-26T07:23:06.212Z,1636.88
2023-04-26T07:24:06.272Z,1552.50
2023-04-26T07:25:06.299Z,1530.00
2023-04-26T07:26:06.200Z,731.25
2023-04-26T07:27:06.180Z,1721.25
2023-04-26T07:28:06.149Z,652.50
2023-04-26T07:29:06.143Z,776.25
2023-04-26T07:30:06.161Z,511.88
2023-04-26T07:31:08.786Z,455.62
2023-04-26T07:32:07.118Z,433.12
2023-04-26T07:33:06.206Z,427.50
2023-04-26T07:34:06.123Z,877.50
2023-04-26T07:35:06.144Z,556.88
2023-04-26T07:36:06.089Z,562.50
2023-04-26T07:37:06.056Z,523.12
2023-04-26T07:38:06.059Z,568.12
2023-04-26T07:39:06.052Z,579.38
2023-04-26T07:40:06.042Z,1378.12
2023-04-26T07:41:06.032Z,1344.38
2023-04-26T07:42:05.995Z,1186.88
2023-04-26T07:43:06.049Z,832.50
2023-04-26T07:44:05.977Z,1040.62
2023-04-26T07:45:05.984Z,601.88
2023-04-26T07:46:06.073Z,573.75
2023-04-26T07:47:05.944Z,585.00
2023-04-26T07:48:06.008Z,1524.38
2023-04-26T07:49:05.940Z,1805.62
2023-04-26T07:50:05.974Z,765.00
2023-04-26T07:51:05.903Z,1501.88
2023-04-26T07:52:05.932Z,1535.62
2023-04-26T07:53:05.948Z,1237.50
2023-04-26T07:54:05.932Z,984.38
2023-04-26T07:55:05.883Z,871.88
2023-04-26T07:56:05.999Z,601.88
2023-04-26T07:57:05.846Z,579.38
2023-04-26T07:58:05.854Z,590.62
2023-04-26T07:59:05.864Z,1906.88
2023-04-26T08:00:05.826Z,1794.38
2023-04-26T08:01:05.813Z,1918.12
2023-04-26T08:02:05.839Z,1929.38
2023-04-26T08:03:05.980Z,961.88
2023-04-26T08:04:06.075Z,2013.75
2023-04-26T08:05:05.984Z,1957.50
2023-04-26T08:06:05.873Z,1912.50
2023-04-26T08:07:05.750Z,669.38
2023-04-26T08:08:05.794Z,2070.00
2023-04-26T08:09:05.702Z,2025.00
2023-04-26T08:10:05.701Z,2025.00
2023-04-26T08:11:05.696Z,2030.62
2023-04-26T08:12:05.703Z,675.00
2023-04-26T08:13:05.664Z,585.00
2023-04-26T08:14:05.641Z,551.25
2023-04-26T08:15:05.647Z,556.88
2023-04-26T08:16:05.649Z,2019.38
2023-04-26T08:17:05.714Z,1136.25
2023-04-26T08:18:05.644Z,613.12
2023-04-26T08:19:05.605Z,2143.12
2023-04-26T08:20:05.586Z,624.38
2023-04-26T08:21:05.579Z,765.00
2023-04-26T08:22:05.558Z,607.50
2023-04-26T08:23:05.569Z,607.50
2023-04-26T08:24:05.547Z,1996.88
2023-04-26T08:25:05.725Z,1985.62
2023-04-26T08:26:05.537Z,1963.12
2023-04-26T08:27:05.531Z,1873.12
2023-04-26T08:28:05.498Z,556.88
2023-04-26T08:29:05.497Z,489.38
2023-04-26T08:30:05.471Z,461.25
2023-04-26T08:31:05.555Z,455.62
2023-04-26T08:32:05.473Z,461.25
2023-04-26T08:33:05.519Z,489.38
2023-04-26T08:34:05.499Z,1383.75
2023-04-26T08:35:06.073Z,1383.75
2023-04-26T08:36:05.406Z,1417.50
2023-04-26T08:37:05.456Z,1254.38
2023-04-26T08:38:05.394Z,1530.00
2023-04-26T08:39:05.379Z,601.88
2023-04-26T08:40:05.417Z,511.88
2023-04-26T08:41:05.383Z,455.62
2023-04-26T08:42:05.349Z,410.62
2023-04-26T08:43:05.379Z,388.12
2023-04-26T08:44:05.341Z,376.88
2023-04-26T08:45:05.312Z,371.25
2023-04-26T08:46:05.342Z,365.62
2023-04-26T08:47:12.809Z,354.38
2023-04-26T08:48:05.318Z,354.38
2023-04-26T08:49:05.275Z,354.38
2023-04-26T08:50:05.311Z,348.75
2023-04-26T08:51:05.278Z,348.75
2023-04-26T08:52:05.246Z,348.75
2023-04-26T08:53:05.241Z,348.75
2023-04-26T08:54:05.237Z,343.12
2023-04-26T08:55:06.095Z,343.12
2023-04-26T08:56:05.214Z,343.12
2023-04-26T08:57:05.208Z,337.50
2023-04-26T08:58:05.206Z,331.88
2023-04-26T08:59:05.173Z,326.25
2023-04-26T09:00:05.194Z,320.62
2023-04-26T09:01:05.168Z,326.25
2023-04-26T09:02:05.215Z,331.88
2023-04-26T09:03:05.275Z,331.88
2023-04-26T09:04:05.323Z,337.50
2023-04-26T09:05:05.581Z,354.38
2023-04-26T09:06:05.207Z,371.25
2023-04-26T09:07:05.091Z,371.25
2023-04-26T09:08:05.097Z,354.38
2023-04-26T09:09:05.094Z,326.25
2023-04-26T09:10:05.056Z,298.12
2023-04-26T09:11:05.060Z,275.62
2023-04-26T09:12:05.047Z,253.12
2023-04-26T09:13:05.008Z,236.25
2023-04-26T09:14:05.001Z,219.38
2023-04-26T09:15:05.011Z,208.12
2023-04-26T09:16:05.327Z,191.25
2023-04-26T09:17:04.975Z,185.62
2023-04-26T09:18:05.043Z,174.38
2023-04-26T09:19:04.968Z,168.75
2023-04-26T09:20:07.186Z,157.50
2023-04-26T09:21:04.945Z,151.88
2023-04-26T09:22:05.008Z,146.25
2023-04-26T09:23:04.939Z,146.25
2023-04-26T09:24:04.893Z,140.62
2023-04-26T09:25:04.898Z,140.62
2023-04-26T09:26:04.861Z,135.00
2023-04-26T09:27:04.853Z,140.62
2023-04-26T09:28:05.559Z,140.62
2023-04-26T09:29:04.829Z,135.00
2023-04-26T09:30:04.837Z,135.00
2023-04-26T09:31:04.837Z,135.00
2023-04-26T09:32:04.794Z,129.38
2023-04-26T09:33:04.834Z,129.38
2023-04-26T09:34:04.774Z,123.75
2023-04-26T09:35:04.793Z,112.50
2023-04-26T09:36:04.767Z,101.25
2023-04-26T09:37:04.748Z,101.25
2023-04-26T09:38:09.748Z,101.25
2023-04-26T09:39:05.729Z,106.88
2023-04-26T09:40:04.716Z,106.88
2023-04-26T09:41:04.724Z,118.12
2023-04-26T09:42:04.699Z,123.75
2023-04-26T09:43:04.679Z,135.00
2023-04-26T09:44:04.682Z,146.25
2023-04-26T09:45:04.650Z,163.12
2023-04-26T09:46:04.666Z,180.00
2023-04-26T09:47:04.768Z,191.25
2023-04-26T09:48:05.154Z,208.12
2023-04-26T09:49:04.953Z,225.00
2023-04-26T09:50:04.684Z,241.88
2023-04-26T09:51:04.597Z,258.75
2023-04-26T09:52:04.584Z,286.88
2023-04-26T09:53:04.626Z,315.00
2023-04-26T09:54:04.637Z,354.38
2023-04-26T09:55:04.555Z,393.75
2023-04-26T09:56:04.620Z,523.12
2023-04-26T09:57:04.525Z,871.88
2023-04-26T09:58:04.525Z,984.38
2023-04-26T09:59:04.658Z,1839.38
2023-04-26T10:00:04.630Z,1710.00
2023-04-26T10:01:04.736Z,1743.75
2023-04-26T10:02:04.514Z,1771.88
2023-04-26T10:03:04.788Z,1535.62
2023-04-26T10:04:04.683Z,866.25
2023-04-26T10:05:04.681Z,781.88
2023-04-26T10:06:04.487Z,703.12
2023-04-26T10:07:04.442Z,697.50
2023-04-26T10:08:04.414Z,669.38
2023-04-26T10:09:04.430Z,630.00
2023-04-26T10:10:04.416Z,568.12
2023-04-26T10:11:04.371Z,500.62
2023-04-26T10:12:04.362Z,433.12
2023-04-26T10:13:04.879Z,399.38
2023-04-26T10:14:04.345Z,382.50
2023-04-26T10:15:04.671Z,365.62
2023-04-26T10:16:04.348Z,360.00
2023-04-26T10:17:04.531Z,348.75
2023-04-26T10:18:04.477Z,337.50
2023-04-26T10:19:04.284Z,320.62
2023-04-26T10:20:04.289Z,298.12
2023-04-26T10:21:04.272Z,281.25
2023-04-26T10:22:04.626Z,270.00
2023-04-26T10:23:04.241Z,264.38
2023-04-26T10:24:04.242Z,264.38
2023-04-26T10:25:04.253Z,264.38
2023-04-26T10:26:04.380Z,270.00
2023-04-26T10:27:04.224Z,264.38
2023-04-26T10:28:04.220Z,258.75
2023-04-26T10:29:04.344Z,258.75
2023-04-26T10:30:04.168Z,253.12
2023-04-26T10:31:04.152Z,247.50
2023-04-26T10:32:04.176Z,241.88
2023-04-26T10:33:04.173Z,236.25
2023-04-26T10:34:04.121Z,230.62
2023-04-26T10:35:04.145Z,236.25
2023-04-26T10:36:04.135Z,241.88
2023-04-26T10:37:04.187Z,253.12
2023-04-26T10:38:04.136Z,270.00
2023-04-26T10:39:04.143Z,292.50
2023-04-26T10:40:04.073Z,309.38
2023-04-26T10:41:04.045Z,326.25
2023-04-26T10:42:04.070Z,348.75
2023-04-26T10:43:04.098Z,320.62
2023-04-26T10:44:04.103Z,303.75
2023-04-26T10:45:04.000Z,303.75
2023-04-26T10:46:04.147Z,315.00
2023-04-26T10:47:03.982Z,320.62
2023-04-26T10:48:11.491Z,320.62
2023-04-26T10:49:04.046Z,337.50
2023-04-26T10:50:05.648Z,376.88
2023-04-26T10:51:03.934Z,444.38
2023-04-26T10:52:03.937Z,810.00
2023-04-26T10:53:04.133Z,703.12
2023-04-26T10:54:03.904Z,646.88
2023-04-26T10:55:03.923Z,736.88
2023-04-26T10:56:04.011Z,748.12
2023-04-26T10:57:03.905Z,871.88
2023-04-26T10:58:03.903Z,905.62
2023-04-26T10:59:08.461Z,956.25
2023-04-26T11:00:03.840Z,866.25
2023-04-26T11:01:03.864Z,967.50
2023-04-26T11:02:03.814Z,1085.62
2023-04-26T11:03:04.033Z,1063.12
2023-04-26T11:04:03.991Z,1170.00
2023-04-26T11:05:03.810Z,1091.25
2023-04-26T11:06:03.777Z,1158.75
2023-04-26T11:07:03.774Z,1316.25
2023-04-26T11:08:03.773Z,1040.62
2023-04-26T11:09:03.741Z,990.00
2023-04-26T11:10:03.742Z,933.75
2023-04-26T11:11:03.727Z,961.88
2023-04-26T11:12:03.707Z,1051.88
2023-04-26T11:13:03.711Z,1074.38
2023-04-26T11:14:03.716Z,1080.00
2023-04-26T11:15:03.725Z,978.75
2023-04-26T11:16:03.746Z,1040.62
2023-04-26T11:17:03.717Z,1018.12
2023-04-26T11:18:03.761Z,1012.50
2023-04-26T11:19:03.646Z,978.75
2023-04-26T11:20:03.631Z,950.62
2023-04-26T11:21:03.624Z,928.12
2023-04-26T11:22:03.599Z,939.38
2023-04-26T11:23:03.663Z,967.50
2023-04-26T11:24:03.592Z,1001.25
2023-04-26T11:25:03.585Z,1029.38
2023-04-26T11:26:03.605Z,1018.12
2023-04-26T11:27:03.538Z,973.12
2023-04-26T11:28:03.531Z,900.00
2023-04-26T11:29:03.530Z,838.12
2023-04-26T11:30:03.601Z,804.38
2023-04-26T11:31:03.538Z,765.00
2023-04-26T11:32:03.514Z,725.62
2023-04-26T11:33:03.533Z,686.25
2023-04-26T11:34:03.478Z,658.12
2023-04-26T11:35:03.448Z,635.62
2023-04-26T11:36:03.490Z,618.75
2023-04-26T11:37:03.440Z,601.88
2023-04-26T11:38:03.418Z,585.00
2023-04-26T11:39:03.434Z,556.88
2023-04-26T11:40:03.408Z,523.12
2023-04-26T11:41:03.390Z,500.62
2023-04-26T11:42:03.376Z,466.88
2023-04-26T11:43:03.382Z,438.75
2023-04-26T11:44:03.369Z,416.25
2023-04-26T11:45:03.350Z,393.75
2023-04-26T11:46:03.593Z,376.88
2023-04-26T11:47:03.475Z,360.00
2023-04-26T11:48:03.363Z,337.50
2023-04-26T11:49:03.350Z,320.62
2023-04-26T11:50:03.290Z,298.12
2023-04-26T11:51:03.286Z,275.62
2023-04-26T11:52:03.274Z,258.75
2023-04-26T11:53:03.255Z,247.50
2023-04-26T11:54:03.247Z,241.88
2023-04-26T11:55:03.247Z,230.62
2023-04-26T11:56:03.234Z,225.00
2023-04-26T11:57:03.215Z,225.00
2023-04-26T11:58:03.224Z,230.62
2023-04-26T11:59:03.232Z,236.25
2023-04-26T12:00:03.184Z,247.50
2023-04-26T12:01:03.167Z,264.38
2023-04-26T12:02:03.366Z,281.25
2023-04-26T12:03:03.376Z,292.50
2023-04-26T12:04:03.388Z,303.75
2023-04-26T12:05:03.299Z,309.38
2023-04-26T12:06:03.129Z,315.00
2023-04-26T12:07:03.152Z,326.25
2023-04-26T12:08:03.124Z,343.12
2023-04-26T12:09:03.109Z,371.25
2023-04-26T12:10:03.077Z,416.25
2023-04-26T12:11:03.128Z,478.12
2023-04-26T12:12:03.065Z,528.75
2023-04-26T12:13:03.055Z,618.75
2023-04-26T12:14:03.039Z,652.50
2023-04-26T12:15:03.021Z,849.38
2023-04-26T12:16:07.314Z,776.25
2023-04-26T12:17:03.104Z,911.25
2023-04-26T12:18:03.048Z,950.62
2023-04-26T12:19:02.974Z,956.25
2023-04-26T12:20:02.988Z,765.00
2023-04-26T12:21:02.960Z,714.38
2023-04-26T12:22:02.965Z,714.38
2023-04-26T12:23:02.941Z,686.25
2023-04-26T12:24:02.937Z,641.25
2023-04-26T12:25:02.901Z,596.25
2023-04-26T12:26:02.912Z,562.50
2023-04-26T12:27:02.980Z,528.75
2023-04-26T12:28:02.919Z,483.75
2023-04-26T12:29:02.874Z,444.38
2023-04-26T12:30:02.865Z,399.38
2023-04-26T12:31:02.860Z,360.00
2023-04-26T12:32:03.064Z,337.50
2023-04-26T12:33:15.712Z,315.00
2023-04-26T12:34:03.854Z,292.50
2023-04-26T12:35:02.810Z,275.62
2023-04-26T12:36:02.804Z,264.38
2023-04-26T12:37:02.781Z,253.12
2023-04-26T12:38:02.780Z,241.88
2023-04-26T12:39:03.129Z,230.62
2023-04-26T12:40:02.866Z,219.38
2023-04-26T12:41:02.746Z,213.75
2023-04-26T12:42:02.717Z,208.12
2023-04-26T12:43:02.730Z,196.88
2023-04-26T12:44:02.716Z,196.88
2023-04-26T12:45:02.701Z,191.25